KBML

Berlin Regional Airport

Berlin, New Hampshire, USA
METAR KBML 212252Z AUTO 14008KT 10SM CLR 20/15 A3000 RMK AO2 SLP160 T02000150
Observed Flight Rules
Aug-21 @ 22:52 UTC (55 minutes ago) Visual Flight Rules
Wind Visibility Clouds
140° at 8 knots 10 miles
  • Clear skies
Temperatures Readings
Current 20°C / 68°F
Dewpoint 15°C / 59°F
Humidity 73%
Altimeter 30" Hg
Pressure 1016 hPa
Elevation 345
METAR KBML 212252Z AUTO 14008KT 10SM CLR 20/15 A3000 RMK AO2 SLP160 T02000150
Observed Flight Rules
Aug-21 @ 22:52 UTC
(55 minutes ago)
VFR
Wind Visibility
140° at 8 knots 10 miles
Clouds
  • Clear skies
Temperature Dewpoint
20°C / 68°F 15°C / 59°F
Humidity Altimeter Pressure
73% 30" Hg 1016 hPa